sensor_id;sensor_type;location;lat;lon;timestamp;P1;durP1;ratioP1;P2;durP2;ratioP2
78960;SDS011;68362;45.970;12.646;2023-04-03T00:00:54;4.90;;;3.60;;
78960;SDS011;68362;45.970;12.646;2023-04-03T00:01:57;6.03;;;3.47;;
78960;SDS011;68362;45.970;12.646;2023-04-03T00:02:59;7.28;;;4.15;;
78960;SDS011;68362;45.970;12.646;2023-04-03T00:04:01;5.78;;;3.25;;
78960;SDS011;68362;45.970;12.646;2023-04-03T00:05:03;6.07;;;3.65;;
78960;SDS011;68362;45.970;12.646;2023-04-03T00:06:06;6.07;;;3.80;;
78960;SDS011;68362;45.970;12.646;2023-04-03T00:07:10;4.97;;;3.65;;
78960;SDS011;68362;45.970;12.646;2023-04-03T00:08:14;6.28;;;3.40;;
78960;SDS011;68362;45.970;12.646;2023-04-03T00:10:18;5.40;;;3.33;;
78960;SDS011;68362;45.970;12.646;2023-04-03T00:11:21;6.18;;;3.75;;
78960;SDS011;68362;45.970;12.646;2023-04-03T00:12:23;4.53;;;2.95;;
78960;SDS011;68362;45.970;12.646;2023-04-03T00:13:25;8.15;;;3.42;;
78960;SDS011;68362;45.970;12.646;2023-04-03T00:14:27;7.70;;;3.95;;
78960;SDS011;68362;45.970;12.646;2023-04-03T00:15:29;5.95;;;3.38;;
78960;SDS011;68362;45.970;12.646;2023-04-03T00:16:31;7.07;;;4.00;;
78960;SDS011;68362;45.970;12.646;2023-04-03T00:17:33;6.07;;;3.35;;
78960;SDS011;68362;45.970;12.646;2023-04-03T00:18:36;7.63;;;3.45;;
78960;SDS011;68362;45.970;12.646;2023-04-03T00:19:39;5.82;;;3.47;;
78960;SDS011;68362;45.970;12.646;2023-04-03T00:20:41;4.43;;;3.17;;
78960;SDS011;68362;45.970;12.646;2023-04-03T00:21:43;5.78;;;3.58;;
78960;SDS011;68362;45.970;12.646;2023-04-03T00:22:46;6.15;;;3.85;;
78960;SDS011;68362;45.970;12.646;2023-04-03T00:23:48;5.53;;;3.50;;
78960;SDS011;68362;45.970;12.646;2023-04-03T00:24:50;5.43;;;3.75;;
78960;SDS011;68362;45.970;12.646;2023-04-03T00:25:52;6.75;;;3.45;;
78960;SDS011;68362;45.970;12.646;2023-04-03T00:26:55;6.40;;;4.57;;
78960;SDS011;68362;45.970;12.646;2023-04-03T00:27:57;4.10;;;3.05;;
78960;SDS011;68362;45.970;12.646;2023-04-03T00:28:59;8.65;;;3.85;;
78960;SDS011;68362;45.970;12.646;2023-04-03T00:30:02;6.00;;;3.22;;
78960;SDS011;68362;45.970;12.646;2023-04-03T00:31:04;6.25;;;3.42;;
78960;SDS011;68362;45.970;12.646;2023-04-03T00:32:06;4.30;;;3.10;;
78960;SDS011;68362;45.970;12.646;2023-04-03T00:33:10;6.68;;;3.72;;
78960;SDS011;68362;45.970;12.646;2023-04-03T00:34:14;6.10;;;3.38;;
78960;SDS011;68362;45.970;12.646;2023-04-03T00:35:16;4.53;;;2.90;;
78960;SDS011;68362;45.970;12.646;2023-04-03T00:36:20;4.80;;;3.45;;
78960;SDS011;68362;45.970;12.646;2023-04-03T00:37:22;5.20;;;3.42;;
78960;SDS011;68362;45.970;12.646;2023-04-03T00:38:24;5.60;;;2.85;;
78960;SDS011;68362;45.970;12.646;2023-04-03T00:39:26;4.03;;;3.08;;
78960;SDS011;68362;45.970;12.646;2023-04-03T00:40:32;6.60;;;3.28;;
78960;SDS011;68362;45.970;12.646;2023-04-03T00:41:43;4.40;;;3.15;;
78960;SDS011;68362;45.970;12.646;2023-04-03T00:42:45;6.00;;;3.00;;
78960;SDS011;68362;45.970;12.646;2023-04-03T00:43:48;4.25;;;3.25;;
78960;SDS011;68362;45.970;12.646;2023-04-03T00:45:59;4.43;;;2.85;;
78960;SDS011;68362;45.970;12.646;2023-04-03T00:47:02;4.93;;;2.90;;
78960;SDS011;68362;45.970;12.646;2023-04-03T00:48:08;5.90;;;3.00;;
78960;SDS011;68362;45.970;12.646;2023-04-03T00:49:14;3.53;;;2.20;;
78960;SDS011;68362;45.970;12.646;2023-04-03T00:50:16;4.55;;;2.95;;
78960;SDS011;68362;45.970;12.646;2023-04-03T00:51:20;8.85;;;2.58;;
78960;SDS011;68362;45.970;12.646;2023-04-03T00:52:27;5.10;;;3.35;;
78960;SDS011;68362;45.970;12.646;2023-04-03T00:53:39;5.25;;;3.05;;
78960;SDS011;68362;45.970;12.646;2023-04-03T00:54:45;3.45;;;2.47;;
78960;SDS011;68362;45.970;12.646;2023-04-03T00:55:48;5.18;;;3.13;;
78960;SDS011;68362;45.970;12.646;2023-04-03T00:57:55;3.78;;;2.47;;
78960;SDS011;68362;45.970;12.646;2023-04-03T00:59:02;3.13;;;2.58;;
78960;SDS011;68362;45.970;12.646;2023-04-03T01:00:09;5.22;;;2.35;;
78960;SDS011;68362;45.970;12.646;2023-04-03T01:01:14;6.63;;;2.95;;
78960;SDS011;68362;45.970;12.646;2023-04-03T01:02:20;4.95;;;3.00;;
78960;SDS011;68362;45.970;12.646;2023-04-03T01:03:22;3.67;;;2.58;;
78960;SDS011;68362;45.970;12.646;2023-04-03T01:05:35;5.35;;;2.67;;
78960;SDS011;68362;45.970;12.646;2023-04-03T01:06:37;3.85;;;2.50;;
78960;SDS011;68362;45.970;12.646;2023-04-03T01:07:39;3.95;;;2.17;;
78960;SDS011;68362;45.970;12.646;2023-04-03T01:08:41;4.88;;;2.42;;
78960;SDS011;68362;45.970;12.646;2023-04-03T01:09:44;8.23;;;3.10;;
78960;SDS011;68362;45.970;12.646;2023-04-03T01:10:49;3.42;;;2.35;;
78960;SDS011;68362;45.970;12.646;2023-04-03T01:11:51;3.75;;;2.40;;
78960;SDS011;68362;45.970;12.646;2023-04-03T01:12:53;4.95;;;2.55;;
78960;SDS011;68362;45.970;12.646;2023-04-03T01:13:55;3.20;;;2.35;;
78960;SDS011;68362;45.970;12.646;2023-04-03T01:15:07;4.10;;;2.58;;
78960;SDS011;68362;45.970;12.646;2023-04-03T01:16:11;3.33;;;2.00;;
78960;SDS011;68362;45.970;12.646;2023-04-03T01:18:42;5.28;;;2.50;;
78960;SDS011;68362;45.970;12.646;2023-04-03T01:19:45;2.65;;;2.35;;
78960;SDS011;68362;45.970;12.646;2023-04-03T01:22:26;4.43;;;2.80;;
78960;SDS011;68362;45.970;12.646;2023-04-03T01:23:49;4.47;;;2.83;;
78960;SDS011;68362;45.970;12.646;2023-04-03T01:25:00;5.00;;;2.85;;
78960;SDS011;68362;45.970;12.646;2023-04-03T01:26:03;3.33;;;2.47;;
78960;SDS011;68362;45.970;12.646;2023-04-03T01:27:05;3.20;;;2.50;;
78960;SDS011;68362;45.970;12.646;2023-04-03T01:28:10;3.13;;;2.33;;
78960;SDS011;68362;45.970;12.646;2023-04-03T01:29:17;4.05;;;2.60;;
78960;SDS011;68362;45.970;12.646;2023-04-03T01:30:21;5.05;;;2.47;;
78960;SDS011;68362;45.970;12.646;2023-04-03T01:31:30;4.60;;;2.50;;
78960;SDS011;68362;45.970;12.646;2023-04-03T01:32:35;4.47;;;2.40;;
78960;SDS011;68362;45.970;12.646;2023-04-03T01:33:38;4.80;;;2.65;;
78960;SDS011;68362;45.970;12.646;2023-04-03T01:34:40;3.92;;;2.50;;
78960;SDS011;68362;45.970;12.646;2023-04-03T01:35:42;5.68;;;3.10;;
78960;SDS011;68362;45.970;12.646;2023-04-03T01:36:44;5.68;;;2.22;;
78960;SDS011;68362;45.970;12.646;2023-04-03T01:37:46;3.88;;;2.30;;
78960;SDS011;68362;45.970;12.646;2023-04-03T01:38:48;3.83;;;1.95;;
78960;SDS011;68362;45.970;12.646;2023-04-03T01:39:51;5.22;;;2.88;;
78960;SDS011;68362;45.970;12.646;2023-04-03T01:40:53;4.63;;;2.25;;
78960;SDS011;68362;45.970;12.646;2023-04-03T01:41:55;3.67;;;2.53;;
78960;SDS011;68362;45.970;12.646;2023-04-03T01:42:57;4.47;;;2.35;;
78960;SDS011;68362;45.970;12.646;2023-04-03T01:43:59;3.83;;;2.38;;
78960;SDS011;68362;45.970;12.646;2023-04-03T01:45:01;3.17;;;2.20;;
78960;SDS011;68362;45.970;12.646;2023-04-03T01:46:04;3.45;;;2.35;;
78960;SDS011;68362;45.970;12.646;2023-04-03T01:47:06;2.80;;;2.05;;
78960;SDS011;68362;45.970;12.646;2023-04-03T01:48:08;2.70;;;2.17;;
78960;SDS011;68362;45.970;12.646;2023-04-03T01:49:10;3.22;;;2.63;;
78960;SDS011;68362;45.970;12.646;2023-04-03T01:50:13;5.55;;;2.78;;
78960;SDS011;68362;45.970;12.646;2023-04-03T01:51:15;4.78;;;2.58;;
78960;SDS011;68362;45.970;12.646;2023-04-03T01:52:17;3.08;;;2.05;;
78960;SDS011;68362;45.970;12.646;2023-04-03T01:53:19;5.05;;;2.75;;
78960;SDS011;68362;45.970;12.646;2023-04-03T01:54:22;4.30;;;2.45;;
78960;SDS011;68362;45.970;12.646;2023-04-03T01:55:24;3.13;;;2.63;;
78960;SDS011;68362;45.970;12.646;2023-04-03T01:56:26;3.60;;;2.53;;
78960;SDS011;68362;45.970;12.646;2023-04-03T01:57:28;5.05;;;2.40;;
78960;SDS011;68362;45.970;12.646;2023-04-03T01:58:30;5.85;;;2.92;;
78960;SDS011;68362;45.970;12.646;2023-04-03T01:59:32;4.07;;;2.38;;
78960;SDS011;68362;45.970;12.646;2023-04-03T02:00:34;5.57;;;2.55;;
78960;SDS011;68362;45.970;12.646;2023-04-03T02:01:38;4.72;;;2.60;;
78960;SDS011;68362;45.970;12.646;2023-04-03T02:02:41;3.65;;;2.38;;
78960;SDS011;68362;45.970;12.646;2023-04-03T02:03:43;5.50;;;2.40;;
78960;SDS011;68362;45.970;12.646;2023-04-03T02:04:45;5.38;;;2.22;;
78960;SDS011;68362;45.970;12.646;2023-04-03T02:05:47;4.50;;;2.25;;
78960;SDS011;68362;45.970;12.646;2023-04-03T02:06:50;3.05;;;2.10;;
78960;SDS011;68362;45.970;12.646;2023-04-03T02:07:52;4.18;;;2.30;;
78960;SDS011;68362;45.970;12.646;2023-04-03T02:08:54;3.58;;;2.50;;
78960;SDS011;68362;45.970;12.646;2023-04-03T02:09:55;4.05;;;2.42;;
78960;SDS011;68362;45.970;12.646;2023-04-03T02:10:58;2.72;;;2.20;;
78960;SDS011;68362;45.970;12.646;2023-04-03T02:12:00;4.32;;;2.47;;
78960;SDS011;68362;45.970;12.646;2023-04-03T02:13:02;3.92;;;2.10;;
78960;SDS011;68362;45.970;12.646;2023-04-03T02:14:04;3.67;;;2.40;;
78960;SDS011;68362;45.970;12.646;2023-04-03T02:15:06;3.15;;;2.40;;
78960;SDS011;68362;45.970;12.646;2023-04-03T02:16:09;3.20;;;2.40;;
78960;SDS011;68362;45.970;12.646;2023-04-03T02:17:12;3.97;;;2.20;;
78960;SDS011;68362;45.970;12.646;2023-04-03T02:18:15;3.53;;;2.00;;
78960;SDS011;68362;45.970;12.646;2023-04-03T02:19:17;3.85;;;2.20;;
78960;SDS011;68362;45.970;12.646;2023-04-03T02:20:20;4.22;;;2.65;;
78960;SDS011;68362;45.970;12.646;2023-04-03T02:21:22;3.45;;;2.22;;
78960;SDS011;68362;45.970;12.646;2023-04-03T02:22:24;3.35;;;2.30;;
78960;SDS011;68362;45.970;12.646;2023-04-03T02:23:27;5.53;;;2.50;;
78960;SDS011;68362;45.970;12.646;2023-04-03T02:24:29;2.55;;;1.90;;
78960;SDS011;68362;45.970;12.646;2023-04-03T02:25:31;3.78;;;2.40;;
78960;SDS011;68362;45.970;12.646;2023-04-03T02:26:34;2.88;;;2.10;;
78960;SDS011;68362;45.970;12.646;2023-04-03T02:27:36;3.80;;;2.33;;
78960;SDS011;68362;45.970;12.646;2023-04-03T02:28:38;5.05;;;2.60;;
78960;SDS011;68362;45.970;12.646;2023-04-03T02:29:41;4.65;;;2.50;;
78960;SDS011;68362;45.970;12.646;2023-04-03T02:30:43;5.85;;;2.72;;
78960;SDS011;68362;45.970;12.646;2023-04-03T02:31:45;4.65;;;2.53;;
78960;SDS011;68362;45.970;12.646;2023-04-03T02:32:47;6.43;;;3.00;;
78960;SDS011;68362;45.970;12.646;2023-04-03T02:33:49;4.90;;;3.38;;
78960;SDS011;68362;45.970;12.646;2023-04-03T02:34:51;4.57;;;2.80;;
78960;SDS011;68362;45.970;12.646;2023-04-03T02:35:54;4.45;;;2.78;;
78960;SDS011;68362;45.970;12.646;2023-04-03T02:36:57;3.33;;;2.00;;
78960;SDS011;68362;45.970;12.646;2023-04-03T02:37:59;4.22;;;3.03;;
78960;SDS011;68362;45.970;12.646;2023-04-03T02:39:01;4.80;;;2.33;;
78960;SDS011;68362;45.970;12.646;2023-04-03T02:40:04;6.57;;;3.20;;
78960;SDS011;68362;45.970;12.646;2023-04-03T02:41:08;4.82;;;2.92;;
78960;SDS011;68362;45.970;12.646;2023-04-03T02:42:11;5.63;;;2.47;;
78960;SDS011;68362;45.970;12.646;2023-04-03T02:43:14;5.32;;;2.65;;
78960;SDS011;68362;45.970;12.646;2023-04-03T02:44:16;3.38;;;2.05;;
78960;SDS011;68362;45.970;12.646;2023-04-03T02:45:19;6.20;;;2.33;;
78960;SDS011;68362;45.970;12.646;2023-04-03T02:46:21;4.05;;;2.65;;
78960;SDS011;68362;45.970;12.646;2023-04-03T02:47:23;3.55;;;2.42;;
78960;SDS011;68362;45.970;12.646;2023-04-03T02:48:25;6.65;;;2.22;;
78960;SDS011;68362;45.970;12.646;2023-04-03T02:49:28;3.63;;;2.20;;
78960;SDS011;68362;45.970;12.646;2023-04-03T02:50:30;4.43;;;2.72;;
78960;SDS011;68362;45.970;12.646;2023-04-03T02:51:32;3.58;;;2.13;;
78960;SDS011;68362;45.970;12.646;2023-04-03T02:52:34;4.57;;;2.55;;
78960;SDS011;68362;45.970;12.646;2023-04-03T02:53:36;6.60;;;2.35;;
78960;SDS011;68362;45.970;12.646;2023-04-03T02:54:38;3.75;;;2.20;;
78960;SDS011;68362;45.970;12.646;2023-04-03T02:55:40;3.92;;;2.72;;
78960;SDS011;68362;45.970;12.646;2023-04-03T02:56:43;4.72;;;2.30;;
78960;SDS011;68362;45.970;12.646;2023-04-03T02:57:44;6.32;;;2.33;;
78960;SDS011;68362;45.970;12.646;2023-04-03T02:58:46;3.95;;;2.00;;
78960;SDS011;68362;45.970;12.646;2023-04-03T02:59:48;4.60;;;2.22;;
78960;SDS011;68362;45.970;12.646;2023-04-03T03:00:51;3.63;;;2.00;;
78960;SDS011;68362;45.970;12.646;2023-04-03T03:01:53;4.30;;;2.13;;
78960;SDS011;68362;45.970;12.646;2023-04-03T03:02:55;6.18;;;2.00;;
78960;SDS011;68362;45.970;12.646;2023-04-03T03:03:57;3.97;;;2.10;;
78960;SDS011;68362;45.970;12.646;2023-04-03T03:05:01;3.00;;;2.00;;
78960;SDS011;68362;45.970;12.646;2023-04-03T03:06:14;7.28;;;2.45;;
78960;SDS011;68362;45.970;12.646;2023-04-03T03:07:18;4.30;;;2.08;;
78960;SDS011;68362;45.970;12.646;2023-04-03T03:08:20;2.63;;;2.05;;
78960;SDS011;68362;45.970;12.646;2023-04-03T03:09:22;4.32;;;2.35;;
78960;SDS011;68362;45.970;12.646;2023-04-03T03:10:24;3.35;;;2.22;;
78960;SDS011;68362;45.970;12.646;2023-04-03T03:11:26;4.30;;;2.10;;
78960;SDS011;68362;45.970;12.646;2023-04-03T03:12:28;4.40;;;1.95;;
78960;SDS011;68362;45.970;12.646;2023-04-03T03:13:33;3.10;;;1.98;;
78960;SDS011;68362;45.970;12.646;2023-04-03T03:14:35;3.10;;;1.92;;
78960;SDS011;68362;45.970;12.646;2023-04-03T03:15:37;4.68;;;2.08;;
78960;SDS011;68362;45.970;12.646;2023-04-03T03:16:39;3.88;;;2.40;;
78960;SDS011;68362;45.970;12.646;2023-04-03T03:17:41;4.13;;;1.95;;
78960;SDS011;68362;45.970;12.646;2023-04-03T03:18:43;5.68;;;2.10;;
78960;SDS011;68362;45.970;12.646;2023-04-03T03:19:46;2.95;;;1.90;;
78960;SDS011;68362;45.970;12.646;2023-04-03T03:20:52;2.63;;;1.67;;
78960;SDS011;68362;45.970;12.646;2023-04-03T03:21:55;2.97;;;1.73;;
78960;SDS011;68362;45.970;12.646;2023-04-03T03:22:58;3.50;;;2.85;;
78960;SDS011;68362;45.970;12.646;2023-04-03T03:24:00;3.03;;;2.50;;
78960;SDS011;68362;45.970;12.646;2023-04-03T03:25:02;4.18;;;2.80;;
78960;SDS011;68362;45.970;12.646;2023-04-03T03:26:06;4.03;;;2.42;;
78960;SDS011;68362;45.970;12.646;2023-04-03T03:27:10;3.70;;;2.10;;
78960;SDS011;68362;45.970;12.646;2023-04-03T03:28:12;2.72;;;2.30;;
78960;SDS011;68362;45.970;12.646;2023-04-03T03:29:14;3.17;;;2.08;;
78960;SDS011;68362;45.970;12.646;2023-04-03T03:30:16;3.40;;;1.85;;
78960;SDS011;68362;45.970;12.646;2023-04-03T03:31:18;6.93;;;2.72;;
78960;SDS011;68362;45.970;12.646;2023-04-03T03:32:20;1.85;;;1.40;;
78960;SDS011;68362;45.970;12.646;2023-04-03T03:33:22;3.40;;;1.65;;
78960;SDS011;68362;45.970;12.646;2023-04-03T03:34:24;2.50;;;1.70;;
78960;SDS011;68362;45.970;12.646;2023-04-03T03:35:26;3.40;;;1.65;;
78960;SDS011;68362;45.970;12.646;2023-04-03T03:36:29;3.05;;;1.63;;
78960;SDS011;68362;45.970;12.646;2023-04-03T03:37:32;5.13;;;2.00;;
78960;SDS011;68362;45.970;12.646;2023-04-03T03:38:34;4.70;;;2.15;;
78960;SDS011;68362;45.970;12.646;2023-04-03T03:39:36;3.00;;;1.80;;
78960;SDS011;68362;45.970;12.646;2023-04-03T03:40:38;3.00;;;1.90;;
78960;SDS011;68362;45.970;12.646;2023-04-03T03:41:40;5.70;;;2.00;;
78960;SDS011;68362;45.970;12.646;2023-04-03T03:42:42;3.28;;;2.05;;
78960;SDS011;68362;45.970;12.646;2023-04-03T03:43:44;3.22;;;2.10;;
78960;SDS011;68362;45.970;12.646;2023-04-03T03:44:46;3.47;;;2.00;;
78960;SDS011;68362;45.970;12.646;2023-04-03T03:45:51;2.67;;;1.80;;
78960;SDS011;68362;45.970;12.646;2023-04-03T03:46:55;5.28;;;2.30;;
78960;SDS011;68362;45.970;12.646;2023-04-03T03:49:00;3.22;;;1.67;;
78960;SDS011;68362;45.970;12.646;2023-04-03T03:50:02;4.70;;;2.28;;
78960;SDS011;68362;45.970;12.646;2023-04-03T03:52:06;4.07;;;2.10;;
78960;SDS011;68362;45.970;12.646;2023-04-03T03:53:12;4.40;;;2.20;;
78960;SDS011;68362;45.970;12.646;2023-04-03T03:54:14;2.63;;;1.65;;
78960;SDS011;68362;45.970;12.646;2023-04-03T03:55:16;3.13;;;1.70;;
78960;SDS011;68362;45.970;12.646;2023-04-03T03:56:18;3.58;;;1.80;;
78960;SDS011;68362;45.970;12.646;2023-04-03T03:57:21;3.38;;;2.17;;
78960;SDS011;68362;45.970;12.646;2023-04-03T03:58:24;5.00;;;2.03;;
78960;SDS011;68362;45.970;12.646;2023-04-03T03:59:26;7.10;;;2.25;;
78960;SDS011;68362;45.970;12.646;2023-04-03T04:00:28;4.63;;;2.00;;
78960;SDS011;68362;45.970;12.646;2023-04-03T04:02:33;3.08;;;1.75;;
78960;SDS011;68362;45.970;12.646;2023-04-03T04:04:38;3.03;;;1.75;;
78960;SDS011;68362;45.970;12.646;2023-04-03T04:05:41;3.22;;;1.60;;
78960;SDS011;68362;45.970;12.646;2023-04-03T04:06:43;2.92;;;1.55;;
78960;SDS011;68362;45.970;12.646;2023-04-03T04:07:45;2.00;;;1.30;;
78960;SDS011;68362;45.970;12.646;2023-04-03T04:08:47;3.05;;;1.17;;
78960;SDS011;68362;45.970;12.646;2023-04-03T04:09:49;4.32;;;1.60;;
78960;SDS011;68362;45.970;12.646;2023-04-03T04:10:51;2.30;;;1.30;;
78960;SDS011;68362;45.970;12.646;2023-04-03T04:11:54;2.95;;;1.20;;
78960;SDS011;68362;45.970;12.646;2023-04-03T04:12:56;3.72;;;1.55;;
78960;SDS011;68362;45.970;12.646;2023-04-03T04:15:01;2.08;;;1.20;;
78960;SDS011;68362;45.970;12.646;2023-04-03T04:16:05;1.40;;;1.05;;
78960;SDS011;68362;45.970;12.646;2023-04-03T04:17:07;3.10;;;1.17;;
78960;SDS011;68362;45.970;12.646;2023-04-03T04:18:09;3.22;;;0.82;;
78960;SDS011;68362;45.970;12.646;2023-04-03T04:19:11;1.05;;;0.90;;
78960;SDS011;68362;45.970;12.646;2023-04-03T04:20:14;1.75;;;1.20;;
78960;SDS011;68362;45.970;12.646;2023-04-03T04:21:16;2.22;;;1.40;;
78960;SDS011;68362;45.970;12.646;2023-04-03T04:22:18;2.05;;;1.00;;
78960;SDS011;68362;45.970;12.646;2023-04-03T04:23:21;1.33;;;0.88;;
78960;SDS011;68362;45.970;12.646;2023-04-03T04:24:23;2.00;;;1.23;;
78960;SDS011;68362;45.970;12.646;2023-04-03T04:25:25;1.67;;;1.00;;
78960;SDS011;68362;45.970;12.646;2023-04-03T04:26:27;3.53;;;1.10;;
78960;SDS011;68362;45.970;12.646;2023-04-03T04:27:29;1.58;;;1.05;;
78960;SDS011;68362;45.970;12.646;2023-04-03T04:28:32;1.35;;;0.82;;
78960;SDS011;68362;45.970;12.646;2023-04-03T04:29:34;1.20;;;0.80;;
78960;SDS011;68362;45.970;12.646;2023-04-03T04:30:38;4.10;;;1.05;;
78960;SDS011;68362;45.970;12.646;2023-04-03T04:31:40;3.15;;;1.05;;
78960;SDS011;68362;45.970;12.646;2023-04-03T04:32:42;1.65;;;0.90;;
78960;SDS011;68362;45.970;12.646;2023-04-03T04:33:45;1.48;;;1.15;;
78960;SDS011;68362;45.970;12.646;2023-04-03T04:34:47;1.00;;;0.75;;
78960;SDS011;68362;45.970;12.646;2023-04-03T04:35:49;2.08;;;0.90;;
78960;SDS011;68362;45.970;12.646;2023-04-03T04:37:54;2.10;;;1.15;;
78960;SDS011;68362;45.970;12.646;2023-04-03T04:38:56;3.60;;;1.40;;
78960;SDS011;68362;45.970;12.646;2023-04-03T04:39:58;1.55;;;0.93;;
78960;SDS011;68362;45.970;12.646;2023-04-03T04:41:00;2.55;;;1.17;;
78960;SDS011;68362;45.970;12.646;2023-04-03T04:42:02;1.85;;;1.10;;
78960;SDS011;68362;45.970;12.646;2023-04-03T04:43:04;1.52;;;1.00;;
78960;SDS011;68362;45.970;12.646;2023-04-03T04:44:06;1.52;;;1.05;;
78960;SDS011;68362;45.970;12.646;2023-04-03T04:45:09;2.13;;;1.30;;
78960;SDS011;68362;45.970;12.646;2023-04-03T04:46:11;3.08;;;1.15;;
78960;SDS011;68362;45.970;12.646;2023-04-03T04:47:13;3.53;;;1.15;;
78960;SDS011;68362;45.970;12.646;2023-04-03T04:48:16;6.05;;;1.90;;
78960;SDS011;68362;45.970;12.646;2023-04-03T04:49:18;5.05;;;1.95;;
78960;SDS011;68362;45.970;12.646;2023-04-03T04:50:20;2.33;;;1.10;;
78960;SDS011;68362;45.970;12.646;2023-04-03T04:51:22;1.92;;;1.48;;
78960;SDS011;68362;45.970;12.646;2023-04-03T04:52:24;2.05;;;1.17;;
78960;SDS011;68362;45.970;12.646;2023-04-03T04:53:27;3.20;;;1.17;;
78960;SDS011;68362;45.970;12.646;2023-04-03T04:54:28;1.80;;;1.20;;
78960;SDS011;68362;45.970;12.646;2023-04-03T04:55:30;2.03;;;1.05;;
78960;SDS011;68362;45.970;12.646;2023-04-03T04:56:32;2.88;;;1.60;;
78960;SDS011;68362;45.970;12.646;2023-04-03T04:57:35;1.67;;;1.08;;
78960;SDS011;68362;45.970;12.646;2023-04-03T04:58:38;2.03;;;1.42;;
78960;SDS011;68362;45.970;12.646;2023-04-03T04:59:40;2.05;;;1.38;;
78960;SDS011;68362;45.970;12.646;2023-04-03T05:00:42;1.42;;;1.00;;
78960;SDS011;68362;45.970;12.646;2023-04-03T05:01:45;1.83;;;1.00;;
78960;SDS011;68362;45.970;12.646;2023-04-03T05:02:47;3.97;;;1.10;;
78960;SDS011;68362;45.970;12.646;2023-04-03T05:03:49;3.33;;;1.30;;
78960;SDS011;68362;45.970;12.646;2023-04-03T05:04:51;4.05;;;1.23;;
78960;SDS011;68362;45.970;12.646;2023-04-03T05:06:56;3.45;;;1.23;;
78960;SDS011;68362;45.970;12.646;2023-04-03T05:07:58;2.30;;;1.20;;
78960;SDS011;68362;45.970;12.646;2023-04-03T05:09:00;2.20;;;1.38;;
78960;SDS011;68362;45.970;12.646;2023-04-03T05:10:03;1.70;;;1.00;;
78960;SDS011;68362;45.970;12.646;2023-04-03T05:11:05;2.03;;;1.25;;
78960;SDS011;68362;45.970;12.646;2023-04-03T05:12:07;6.25;;;1.73;;
78960;SDS011;68362;45.970;12.646;2023-04-03T05:13:09;3.40;;;1.80;;
78960;SDS011;68362;45.970;12.646;2023-04-03T05:14:12;3.70;;;1.85;;
78960;SDS011;68362;45.970;12.646;2023-04-03T05:15:14;2.20;;;1.85;;
78960;SDS011;68362;45.970;12.646;2023-04-03T05:16:16;2.45;;;1.48;;
78960;SDS011;68362;45.970;12.646;2023-04-03T05:17:18;2.35;;;1.55;;
78960;SDS011;68362;45.970;12.646;2023-04-03T05:18:20;3.22;;;1.45;;
78960;SDS011;68362;45.970;12.646;2023-04-03T05:19:22;1.33;;;1.00;;
78960;SDS011;68362;45.970;12.646;2023-04-03T05:20:24;3.53;;;1.40;;
78960;SDS011;68362;45.970;12.646;2023-04-03T05:21:26;2.30;;;1.20;;
78960;SDS011;68362;45.970;12.646;2023-04-03T05:22:34;4.40;;;2.33;;
78960;SDS011;68362;45.970;12.646;2023-04-03T05:23:36;3.50;;;1.58;;
78960;SDS011;68362;45.970;12.646;2023-04-03T05:24:38;3.28;;;1.70;;
78960;SDS011;68362;45.970;12.646;2023-04-03T05:25:40;2.55;;;1.95;;
78960;SDS011;68362;45.970;12.646;2023-04-03T05:26:42;3.03;;;1.73;;
78960;SDS011;68362;45.970;12.646;2023-04-03T05:27:45;6.30;;;1.80;;
78960;SDS011;68362;45.970;12.646;2023-04-03T05:28:47;5.15;;;2.00;;
78960;SDS011;68362;45.970;12.646;2023-04-03T05:29:49;5.15;;;2.25;;
78960;SDS011;68362;45.970;12.646;2023-04-03T05:30:55;8.07;;;2.05;;
78960;SDS011;68362;45.970;12.646;2023-04-03T05:31:58;3.80;;;1.73;;
78960;SDS011;68362;45.970;12.646;2023-04-03T05:33:00;6.57;;;1.67;;
78960;SDS011;68362;45.970;12.646;2023-04-03T05:34:02;5.38;;;1.73;;
78960;SDS011;68362;45.970;12.646;2023-04-03T05:35:05;4.50;;;2.03;;
78960;SDS011;68362;45.970;12.646;2023-04-03T05:36:08;5.43;;;1.73;;
78960;SDS011;68362;45.970;12.646;2023-04-03T05:37:10;9.32;;;2.10;;
78960;SDS011;68362;45.970;12.646;2023-04-03T05:38:13;3.00;;;1.65;;
78960;SDS011;68362;45.970;12.646;2023-04-03T05:39:15;4.18;;;2.20;;
78960;SDS011;68362;45.970;12.646;2023-04-03T05:40:17;3.60;;;1.50;;
78960;SDS011;68362;45.970;12.646;2023-04-03T05:41:20;4.15;;;1.85;;
78960;SDS011;68362;45.970;12.646;2023-04-03T05:42:22;4.60;;;1.85;;
78960;SDS011;68362;45.970;12.646;2023-04-03T05:43:25;6.00;;;1.88;;
78960;SDS011;68362;45.970;12.646;2023-04-03T05:44:27;4.90;;;1.63;;
78960;SDS011;68362;45.970;12.646;2023-04-03T05:45:29;4.57;;;1.73;;
78960;SDS011;68362;45.970;12.646;2023-04-03T05:46:31;3.10;;;1.65;;
78960;SDS011;68362;45.970;12.646;2023-04-03T05:47:33;3.00;;;1.80;;
78960;SDS011;68362;45.970;12.646;2023-04-03T05:48:35;2.95;;;1.75;;
78960;SDS011;68362;45.970;12.646;2023-04-03T05:49:38;7.00;;;2.10;;
78960;SDS011;68362;45.970;12.646;2023-04-03T05:50:42;5.97;;;2.00;;
78960;SDS011;68362;45.970;12.646;2023-04-03T05:51:45;2.95;;;2.03;;
78960;SDS011;68362;45.970;12.646;2023-04-03T05:52:48;4.85;;;1.55;;
78960;SDS011;68362;45.970;12.646;2023-04-03T05:53:54;5.07;;;2.28;;
78960;SDS011;68362;45.970;12.646;2023-04-03T05:55:02;1.98;;;1.27;;
78960;SDS011;68362;45.970;12.646;2023-04-03T05:56:05;2.80;;;1.50;;
78960;SDS011;68362;45.970;12.646;2023-04-03T05:57:07;1.67;;;1.17;;
78960;SDS011;68362;45.970;12.646;2023-04-03T05:58:09;4.45;;;1.50;;
78960;SDS011;68362;45.970;12.646;2023-04-03T05:59:12;4.20;;;2.40;;
78960;SDS011;68362;45.970;12.646;2023-04-03T06:00:14;2.22;;;1.10;;
78960;SDS011;68362;45.970;12.646;2023-04-03T06:01:17;2.15;;;1.25;;
78960;SDS011;68362;45.970;12.646;2023-04-03T06:02:20;2.35;;;1.45;;
78960;SDS011;68362;45.970;12.646;2023-04-03T06:03:24;2.90;;;1.77;;
78960;SDS011;68362;45.970;12.646;2023-04-03T06:04:27;1.55;;;1.45;;
78960;SDS011;68362;45.970;12.646;2023-04-03T06:05:30;4.38;;;1.58;;
78960;SDS011;68362;45.970;12.646;2023-04-03T06:06:49;1.95;;;1.30;;
78960;SDS011;68362;45.970;12.646;2023-04-03T06:08:55;3.63;;;1.30;;
78960;SDS011;68362;45.970;12.646;2023-04-03T06:09:58;3.25;;;2.05;;
78960;SDS011;68362;45.970;12.646;2023-04-03T06:11:00;2.28;;;1.67;;
78960;SDS011;68362;45.970;12.646;2023-04-03T06:12:03;2.47;;;1.13;;
78960;SDS011;68362;45.970;12.646;2023-04-03T06:13:06;1.23;;;0.98;;
78960;SDS011;68362;45.970;12.646;2023-04-03T06:14:09;2.75;;;1.58;;
78960;SDS011;68362;45.970;12.646;2023-04-03T06:15:11;3.22;;;1.33;;
78960;SDS011;68362;45.970;12.646;2023-04-03T06:16:13;1.45;;;1.10;;
78960;SDS011;68362;45.970;12.646;2023-04-03T06:17:17;1.60;;;1.20;;
78960;SDS011;68362;45.970;12.646;2023-04-03T06:18:20;1.63;;;1.13;;
78960;SDS011;68362;45.970;12.646;2023-04-03T06:19:22;1.45;;;1.13;;
78960;SDS011;68362;45.970;12.646;2023-04-03T06:20:24;3.65;;;1.45;;
78960;SDS011;68362;45.970;12.646;2023-04-03T06:21:27;1.55;;;1.00;;
78960;SDS011;68362;45.970;12.646;2023-04-03T06:22:29;3.08;;;1.20;;
78960;SDS011;68362;45.970;12.646;2023-04-03T06:24:34;2.05;;;1.30;;
78960;SDS011;68362;45.970;12.646;2023-04-03T06:25:37;1.75;;;1.02;;
78960;SDS011;68362;45.970;12.646;2023-04-03T06:26:39;1.85;;;1.27;;
78960;SDS011;68362;45.970;12.646;2023-04-03T06:27:41;4.05;;;1.50;;
78960;SDS011;68362;45.970;12.646;2023-04-03T06:28:43;1.67;;;1.20;;
78960;SDS011;68362;45.970;12.646;2023-04-03T06:29:45;2.90;;;1.58;;